sensor_id;sensor_type;location;lat;lon;timestamp;P1;durP1;ratioP1;P2;durP2;ratioP2
65053;SDS011;51639;47.828;35.038;2023-04-05T00:11:52;16.13;;;8.07;;
65053;SDS011;51639;47.828;35.038;2023-04-05T00:26:55;15.63;;;7.97;;
65053;SDS011;51639;47.828;35.038;2023-04-05T00:41:58;13.83;;;8.43;;
65053;SDS011;51639;47.828;35.038;2023-04-05T00:57:02;27.07;;;15.20;;
65053;SDS011;51639;47.828;35.038;2023-04-05T01:12:07;38.90;;;18.17;;
65053;SDS011;51639;47.828;35.038;2023-04-05T01:27:21;33.37;;;15.20;;
65053;SDS011;51639;47.828;35.038;2023-04-05T01:42:37;35.63;;;15.80;;
65053;SDS011;51639;47.828;35.038;2023-04-05T01:57:39;36.60;;;16.47;;
65053;SDS011;51639;47.828;35.038;2023-04-05T02:12:41;33.70;;;16.17;;
65053;SDS011;51639;47.828;35.038;2023-04-05T02:27:43;30.20;;;15.40;;
65053;SDS011;51639;47.828;35.038;2023-04-05T02:42:45;40.80;;;17.07;;
65053;SDS011;51639;47.828;35.038;2023-04-05T02:57:46;26.37;;;12.17;;
65053;SDS011;51639;47.828;35.038;2023-04-05T03:12:48;23.47;;;9.50;;
65053;SDS011;51639;47.828;35.038;2023-04-05T03:27:52;30.03;;;8.83;;
65053;SDS011;51639;47.828;35.038;2023-04-05T03:42:53;14.80;;;7.47;;
65053;SDS011;51639;47.828;35.038;2023-04-05T03:57:55;20.13;;;8.07;;
65053;SDS011;51639;47.828;35.038;2023-04-05T04:12:57;15.97;;;8.50;;
65053;SDS011;51639;47.828;35.038;2023-04-05T04:27:59;18.53;;;7.47;;
65053;SDS011;51639;47.828;35.038;2023-04-05T04:43:01;19.70;;;8.07;;
65053;SDS011;51639;47.828;35.038;2023-04-05T04:58:03;18.73;;;6.70;;
65053;SDS011;51639;47.828;35.038;2023-04-05T05:13:10;21.30;;;7.20;;
65053;SDS011;51639;47.828;35.038;2023-04-05T05:28:12;9.37;;;5.50;;
65053;SDS011;51639;47.828;35.038;2023-04-05T05:43:14;14.57;;;5.87;;
65053;SDS011;51639;47.828;35.038;2023-04-05T05:58:16;9.97;;;6.17;;
65053;SDS011;51639;47.828;35.038;2023-04-05T06:13:18;11.37;;;6.17;;
65053;SDS011;51639;47.828;35.038;2023-04-05T06:28:27;9.40;;;4.87;;
65053;SDS011;51639;47.828;35.038;2023-04-05T06:43:32;9.53;;;4.50;;
65053;SDS011;51639;47.828;35.038;2023-04-05T06:58:34;10.23;;;5.33;;
65053;SDS011;51639;47.828;35.038;2023-04-05T07:13:50;13.13;;;7.17;;
65053;SDS011;51639;47.828;35.038;2023-04-05T07:28:56;12.57;;;5.17;;
65053;SDS011;51639;47.828;35.038;2023-04-05T07:59:07;12.13;;;4.93;;
65053;SDS011;51639;47.828;35.038;2023-04-05T08:14:09;10.67;;;4.20;;
65053;SDS011;51639;47.828;35.038;2023-04-05T08:29:11;13.70;;;4.37;;
65053;SDS011;51639;47.828;35.038;2023-04-05T08:59:21;8.13;;;4.67;;
65053;SDS011;51639;47.828;35.038;2023-04-05T09:14:24;14.80;;;4.80;;
65053;SDS011;51639;47.828;35.038;2023-04-05T09:29:28;13.40;;;3.80;;
65053;SDS011;51639;47.828;35.038;2023-04-05T10:00:17;16.53;;;8.17;;
65053;SDS011;51639;47.828;35.038;2023-04-05T10:15:21;16.40;;;5.37;;
65053;SDS011;51639;47.828;35.038;2023-04-05T10:45:33;22.67;;;6.47;;
65053;SDS011;51639;47.828;35.038;2023-04-05T11:00:39;20.67;;;6.20;;
65053;SDS011;51639;47.828;35.038;2023-04-05T11:15:42;19.90;;;7.90;;
65053;SDS011;51639;47.828;35.038;2023-04-05T11:30:45;33.23;;;15.17;;
65053;SDS011;51639;47.828;35.038;2023-04-05T11:45:49;43.20;;;16.30;;
65053;SDS011;51639;47.828;35.038;2023-04-05T12:01:12;43.47;;;15.37;;
65053;SDS011;51639;47.828;35.038;2023-04-05T12:16:13;24.23;;;8.83;;
65053;SDS011;51639;47.828;35.038;2023-04-05T12:31:15;16.87;;;5.80;;
65053;SDS011;51639;47.828;35.038;2023-04-05T12:46:17;19.17;;;7.27;;
65053;SDS011;51639;47.828;35.038;2023-04-05T13:01:19;26.07;;;7.50;;
65053;SDS011;51639;47.828;35.038;2023-04-05T13:16:24;14.60;;;5.47;;
65053;SDS011;51639;47.828;35.038;2023-04-05T13:31:28;16.27;;;6.83;;
65053;SDS011;51639;47.828;35.038;2023-04-05T13:46:30;14.40;;;6.70;;
65053;SDS011;51639;47.828;35.038;2023-04-05T14:01:37;22.73;;;7.50;;
65053;SDS011;51639;47.828;35.038;2023-04-05T14:16:39;17.90;;;6.27;;
65053;SDS011;51639;47.828;35.038;2023-04-05T14:31:41;13.63;;;6.60;;
65053;SDS011;51639;47.828;35.038;2023-04-05T14:46:44;12.83;;;6.00;;
65053;SDS011;51639;47.828;35.038;2023-04-05T15:01:49;16.30;;;6.20;;
65053;SDS011;51639;47.828;35.038;2023-04-05T15:32:31;19.93;;;7.80;;
65053;SDS011;51639;47.828;35.038;2023-04-05T15:47:34;15.43;;;6.13;;
65053;SDS011;51639;47.828;35.038;2023-04-05T16:02:39;11.83;;;7.83;;
65053;SDS011;51639;47.828;35.038;2023-04-05T16:17:42;17.90;;;8.33;;
65053;SDS011;51639;47.828;35.038;2023-04-05T16:32:45;14.53;;;7.17;;
65053;SDS011;51639;47.828;35.038;2023-04-05T16:47:47;16.90;;;7.93;;
65053;SDS011;51639;47.828;35.038;2023-04-05T17:02:49;15.17;;;8.33;;
65053;SDS011;51639;47.828;35.038;2023-04-05T17:17:52;15.33;;;8.17;;
65053;SDS011;51639;47.828;35.038;2023-04-05T17:32:54;20.63;;;7.43;;
65053;SDS011;51639;47.828;35.038;2023-04-05T17:47:56;15.73;;;8.00;;
65053;SDS011;51639;47.828;35.038;2023-04-05T18:03:01;15.13;;;7.43;;
65053;SDS011;51639;47.828;35.038;2023-04-05T18:18:20;15.03;;;7.30;;
65053;SDS011;51639;47.828;35.038;2023-04-05T18:33:23;18.10;;;7.27;;
65053;SDS011;51639;47.828;35.038;2023-04-05T18:48:25;17.87;;;8.20;;
65053;SDS011;51639;47.828;35.038;2023-04-05T19:03:26;30.33;;;12.37;;
65053;SDS011;51639;47.828;35.038;2023-04-05T19:18:28;23.27;;;11.47;;
65053;SDS011;51639;47.828;35.038;2023-04-05T19:33:31;26.27;;;12.90;;
65053;SDS011;51639;47.828;35.038;2023-04-05T20:03:37;14.50;;;8.67;;
65053;SDS011;51639;47.828;35.038;2023-04-05T20:18:45;21.57;;;8.87;;
65053;SDS011;51639;47.828;35.038;2023-04-05T20:33:52;26.47;;;9.63;;
65053;SDS011;51639;47.828;35.038;2023-04-05T20:48:55;20.30;;;9.37;;
65053;SDS011;51639;47.828;35.038;2023-04-05T21:03:58;18.93;;;9.03;;
65053;SDS011;51639;47.828;35.038;2023-04-05T21:19:00;24.10;;;10.57;;
65053;SDS011;51639;47.828;35.038;2023-04-05T21:34:02;28.63;;;10.40;;
65053;SDS011;51639;47.828;35.038;2023-04-05T21:49:04;17.03;;;10.33;;
65053;SDS011;51639;47.828;35.038;2023-04-05T22:04:06;18.37;;;9.33;;
65053;SDS011;51639;47.828;35.038;2023-04-05T22:19:08;26.53;;;12.10;;
65053;SDS011;51639;47.828;35.038;2023-04-05T22:34:12;41.47;;;12.90;;
65053;SDS011;51639;47.828;35.038;2023-04-05T22:49:14;36.83;;;12.80;;
65053;SDS011;51639;47.828;35.038;2023-04-05T23:04:17;40.77;;;11.57;;
65053;SDS011;51639;47.828;35.038;2023-04-05T23:19:19;61.80;;;12.03;;
65053;SDS011;51639;47.828;35.038;2023-04-05T23:34:21;111.33;;;13.83;;
65053;SDS011;51639;47.828;35.038;2023-04-05T23:49:23;117.30;;;13.80;;
